Time;durP1;ratioP1;P1;durP2;ratioP2;P2;SDS_P1;SDS_P2;PMS_P1;PMS_P2;Temp;Humidity;BMP_temperature;BMP_pressure;BME280_temperature;BME280_humidity;BME280_pressure;Samples;Min_cycle;Max_cycle;Signal;HPM_P1;HPM_P2
2023/10/09 00:01:13;;;;;;;3.65;1.90;;;;;;;12.30;100.00;96529.44;1026717;28;20484;-75
2023/10/09 00:01:44;;;;;;;4.32;1.67;;;;;;;12.29;100.00;96537.63;1018614;29;20289;-76
2023/10/09 00:02:15;;;;;;;0.93;0.90;;;;;;;12.28;100.00;96536.81;1025042;28;20232;-76
2023/10/09 00:02:45;;;;;;;0.68;0.68;;;;;;;12.20;100.00;96537.28;1026697;28;20077;-76
2023/10/09 00:03:17;;;;;;;1.02;0.93;;;;;;;12.20;100.00;96543.34;1022403;29;20099;-77
2023/10/09 00:03:53;;;;;;;2.00;1.33;;;;;;;12.18;100.00;96542.81;1019016;29;20027;-75
2023/10/09 00:04:23;;;;;;;1.58;1.48;;;;;;;12.16;100.00;96537.00;1023739;28;20042;-76
2023/10/09 00:04:56;;;;;;;1.55;0.73;;;;;;;12.13;100.00;96542.75;1027991;28;20080;-77
2023/10/09 00:05:45;;;;;;;2.55;1.73;;;;;;;12.12;100.00;96540.38;1031645;28;20042;-76
2023/10/09 00:06:16;;;;;;;2.85;1.85;;;;;;;12.08;100.00;96539.31;1030672;28;20808;-76
2023/10/09 00:06:47;;;;;;;0.05;0.05;;;;;;;12.04;100.00;96533.78;1024396;28;20038;-76
2023/10/09 00:07:19;;;;;;;1.23;1.13;;;;;;;12.02;100.00;96539.25;1025731;28;20023;-75
2023/10/09 00:07:55;;;;;;;0.82;0.82;;;;;;;11.95;100.00;96530.00;1027018;28;20034;-76
2023/10/09 00:08:32;;;;;;;1.70;0.93;;;;;;;11.98;100.00;96530.28;1026594;28;20034;-76
2023/10/09 00:09:30;;;;;;;0.65;0.65;;;;;;;11.96;100.00;96527.13;1018697;29;20038;-76
2023/10/09 00:09:55;;;;;;;0.60;0.60;;;;;;;11.93;100.00;96537.34;1021433;29;20074;-75
2023/10/09 00:10:35;;;;;;;3.83;3.45;;;;;;;11.84;100.00;96529.13;1022521;28;20306;-76
2023/10/09 00:11:17;;;;;;;2.58;1.65;;;;;;;11.90;100.00;96532.59;1026847;28;20357;-77
2023/10/09 00:11:48;;;;;;;2.78;1.90;;;;;;;11.84;100.00;96531.78;1026586;28;20065;-76
2023/10/09 00:12:22;;;;;;;0.88;0.88;;;;;;;11.89;100.00;96537.06;1022734;29;20273;-76
2023/10/09 00:12:52;;;;;;;1.67;1.58;;;;;;;11.82;100.00;96528.56;1022618;29;20031;-76
2023/10/09 00:13:30;;;;;;;0.65;0.65;;;;;;;11.85;100.00;96533.34;1027171;28;20644;-76
2023/10/09 00:14:04;;;;;;;2.42;1.48;;;;;;;11.77;100.00;96528.53;1022474;29;20034;-75
2023/10/09 00:14:38;;;;;;;3.75;1.27;;;;;;;11.78;100.00;96523.00;1020133;29;20266;-76
2023/10/09 00:15:12;;;;;;;6.28;2.35;;;;;;;11.80;100.00;96530.63;1021038;29;20274;-76
2023/10/09 00:15:43;;;;;;;0.30;0.30;;;;;;;11.79;100.00;96523.78;1018417;29;20020;-76
2023/10/09 00:16:14;;;;;;;3.25;1.08;;;;;;;11.82;100.00;96525.91;1020168;29;20685;-75
2023/10/09 00:16:56;;;;;;;1.85;1.52;;;;;;;11.83;100.00;96527.50;1023812;28;20137;-73
2023/10/09 00:17:31;;;;;;;1.85;0.95;;;;;;;11.81;100.00;96524.34;1032392;28;20026;-74
2023/10/09 00:18:04;;;;;;;0.28;0.28;;;;;;;11.84;100.00;96528.28;1032903;28;20053;-77
2023/10/09 00:18:35;;;;;;;2.38;2.05;;;;;;;11.82;100.00;96527.75;1030530;28;20288;-76
2023/10/09 00:19:20;;;;;;;3.17;0.90;;;;;;;11.79;100.00;96524.56;1026570;28;20293;-76
2023/10/09 00:19:59;;;;;;;0.70;0.43;;;;;;;11.84;100.00;96525.66;1029765;28;20030;-77
2023/10/09 00:20:37;;;;;;;2.17;1.27;;;;;;;11.87;100.00;96533.09;1023632;28;20267;-77
2023/10/09 00:21:15;;;;;;;0.90;0.90;;;;;;;11.88;100.00;96522.31;1026598;28;20262;-75
2023/10/09 00:21:48;;;;;;;4.75;3.53;;;;;;;11.90;100.00;96522.84;1025824;28;20776;-77
2023/10/09 00:22:45;;;;;;;0.98;0.63;;;;;;;11.89;100.00;96518.66;1026040;28;20266;-77
2023/10/09 00:23:15;;;;;;;5.85;1.15;;;;;;;11.89;100.00;96523.91;1026722;28;21130;-77
2023/10/09 00:23:55;;;;;;;0.30;0.30;;;;;;;11.82;100.00;96499.63;1026522;28;20854;-77
2023/10/09 00:24:25;;;;;;;0.32;0.32;;;;;;;11.97;100.00;96517.38;1023245;28;20800;-77
2023/10/09 00:25:22;;;;;;;5.47;2.03;;;;;;;11.95;100.00;96512.38;1022145;29;20027;-75
2023/10/09 00:26:09;;;;;;;8.35;0.70;;;;;;;12.01;100.00;96521.13;1023325;28;20520;-76
2023/10/09 00:26:48;;;;;;;1.52;1.42;;;;;;;12.11;100.00;96517.78;1032714;28;20340;-75
2023/10/09 00:27:20;;;;;;;1.15;0.90;;;;;;;12.15;100.00;96505.69;1033074;28;20270;-77
2023/10/09 00:27:51;;;;;;;20.10;1.42;;;;;;;12.19;100.00;96519.91;1026621;28;20254;-77
2023/10/09 00:28:23;;;;;;;2.35;1.52;;;;;;;12.23;100.00;96516.50;1022594;29;20263;-77
2023/10/09 00:28:53;;;;;;;2.03;1.30;;;;;;;12.28;100.00;96515.78;1024244;28;20033;-77
2023/10/09 00:29:27;;;;;;;1.65;1.25;;;;;;;12.24;100.00;96509.44;1022855;29;20286;-75
2023/10/09 00:29:59;;;;;;;2.30;1.50;;;;;;;12.27;100.00;96501.81;1018666;29;20055;-76
2023/10/09 00:30:30;;;;;;;3.00;2.58;;;;;;;12.54;100.00;96514.09;1020943;28;20291;-76
2023/10/09 00:31:07;;;;;;;3.30;0.73;;;;;;;12.64;100.00;96511.50;1029920;28;20740;-76
2023/10/09 00:31:38;;;;;;;1.25;1.20;;;;;;;12.68;100.00;96506.53;1026636;28;20113;-76
2023/10/09 00:32:32;;;;;;;0.32;0.32;;;;;;;12.73;100.00;96501.25;1027859;28;20870;-76
2023/10/09 00:33:03;;;;;;;0.90;0.90;;;;;;;12.82;100.00;96507.63;1026683;28;20922;-74
2023/10/09 00:33:34;;;;;;;0.28;0.28;;;;;;;12.83;100.00;96498.66;1025982;28;20250;-75
2023/10/09 00:34:14;;;;;;;0.40;0.40;;;;;;;12.87;100.00;96505.00;1029991;28;20265;-77
2023/10/09 00:34:50;;;;;;;1.85;0.55;;;;;;;12.97;100.00;96507.66;1020895;29;20027;-75
2023/10/09 00:35:36;;;;;;;2.15;0.90;;;;;;;12.92;100.00;96489.22;1026434;28;20604;-76
2023/10/09 00:36:10;;;;;;;1.42;1.25;;;;;;;13.05;100.00;96495.06;1020081;29;20023;-76
2023/10/09 00:36:50;;;;;;;3.00;2.10;;;;;;;13.05;100.00;96490.59;1018503;29;20085;-76
2023/10/09 00:37:25;;;;;;;0.38;0.38;;;;;;;13.09;100.00;96496.91;1022521;29;20446;-77
2023/10/09 00:38:02;;;;;;;2.20;1.48;;;;;;;13.10;100.00;96487.16;1022458;28;20106;-76
2023/10/09 00:38:34;;;;;;;0.63;0.50;;;;;;;12.99;100.00;96473.16;1018558;28;20485;-76
2023/10/09 00:39:16;;;;;;;0.30;0.10;;;;;;;13.10;100.00;96482.69;1014537;29;20272;-76
2023/10/09 00:39:48;;;;;;;0.55;0.55;;;;;;;13.28;100.00;96484.09;1010887;29;20040;-77
2023/10/09 00:40:27;;;;;;;2.55;0.70;;;;;;;13.31;100.00;96488.84;1016730;29;20039;-77
2023/10/09 00:41:10;;;;;;;0.22;0.22;;;;;;;13.33;100.00;96481.44;1020575;29;20023;-75
2023/10/09 00:41:41;;;;;;;0.47;0.40;;;;;;;13.43;100.00;96478.81;1026564;28;20559;-77
2023/10/09 00:42:13;;;;;;;2.63;1.45;;;;;;;13.44;100.00;96469.84;1026636;28;20062;-77
2023/10/09 00:42:44;;;;;;;3.40;1.70;;;;;;;13.50;100.00;96472.50;1022639;28;20537;-78
2023/10/09 00:43:14;;;;;;;1.98;1.05;;;;;;;13.52;100.00;96473.81;1023003;28;20035;-77
2023/10/09 00:43:45;;;;;;;5.18;0.57;;;;;;;13.53;100.00;96469.34;1022573;28;20033;-75
2023/10/09 00:44:15;;;;;;;2.55;1.35;;;;;;;13.61;100.00;96471.44;1022553;29;20043;-77
2023/10/09 00:44:48;;;;;;;2.53;1.42;;;;;;;13.57;100.00;96473.03;1021243;29;20019;-74
2023/10/09 00:45:27;;;;;;;1.23;1.13;;;;;;;13.56;100.00;96468.81;1017939;29;20044;-76
2023/10/09 00:46:03;;;;;;;2.95;1.05;;;;;;;13.55;100.00;96461.97;1022606;29;20054;-74
2023/10/09 00:46:34;;;;;;;2.08;0.98;;;;;;;13.51;100.00;96452.97;1018535;29;20027;-77
2023/10/09 00:47:20;;;;;;;1.55;1.27;;;;;;;13.56;100.00;96459.06;1018685;29;20074;-76
2023/10/09 00:47:56;;;;;;;0.80;0.80;;;;;;;13.66;100.00;96463.53;1026253;28;20126;-75
2023/10/09 00:48:37;;;;;;;1.20;1.13;;;;;;;13.70;100.00;96464.59;1022811;29;20126;-76
2023/10/09 00:49:10;;;;;;;0.30;0.30;;;;;;;13.72;100.00;96465.13;1022558;29;20122;-76
2023/10/09 00:49:43;;;;;;;8.38;2.20;;;;;;;13.68;100.00;96462.25;1020942;28;20418;-76
2023/10/09 00:50:52;;;;;;;3.60;1.17;;;;;;;13.42;100.00;96416.63;1030563;28;20121;-77
2023/10/09 00:51:24;;;;;;;1.30;0.65;;;;;;;13.67;100.00;96454.56;1018458;29;20024;-76
2023/10/09 00:51:56;;;;;;;3.70;1.20;;;;;;;13.71;100.00;96455.63;1022430;29;20027;-76
2023/10/09 00:52:32;;;;;;;0.50;0.50;;;;;;;13.72;100.00;96462.50;1022526;29;20079;-77
2023/10/09 00:53:04;;;;;;;1.30;0.73;;;;;;;13.65;100.00;96452.22;1014673;29;20035;-77
2023/10/09 00:53:34;;;;;;;1.10;1.05;;;;;;;13.69;100.00;96452.47;1018518;29;20032;-74
2023/10/09 00:54:14;;;;;;;2.65;1.15;;;;;;;13.72;100.00;96454.59;1021092;29;20464;-76
2023/10/09 00:54:50;;;;;;;4.10;1.60;;;;;;;13.66;100.00;96448.50;1018379;29;20031;-75
2023/10/09 00:55:21;;;;;;;0.28;0.28;;;;;;;13.60;100.00;96443.50;1021831;29;20573;-77
2023/10/09 00:55:55;;;;;;;0.13;0.10;;;;;;;13.60;100.00;96449.56;1026420;28;20035;-76
2023/10/09 00:57:06;;;;;;;0.88;0.82;;;;;;;13.56;100.00;96445.88;1026419;28;20038;-76
2023/10/09 00:57:37;;;;;;;;;;;;;;;13.64;100.00;96450.59;1034884;28;20151;-75
2023/10/09 00:58:23;;;;;;;0.73;0.73;;;;;;;13.60;100.00;96454.84;1026387;28;20021;-74
2023/10/09 00:59:15;;;;;;;0.95;0.95;;;;;;;13.58;100.00;96446.41;1022675;29;20031;-76
2023/10/09 00:59:51;;;;;;;0.22;0.20;;;;;;;13.61;100.00;96455.63;1018305;29;20729;-76
2023/10/09 01:00:32;;;;;;;3.08;1.65;;;;;;;13.57;100.00;96446.66;1014712;29;20566;-76
2023/10/09 01:01:06;;;;;;;0.30;0.30;;;;;;;13.66;100.00;96455.63;1019057;29;20051;-75
2023/10/09 01:01:40;;;;;;;0.80;0.80;;;;;;;13.68;100.00;96453.50;1027340;28;20039;-75
2023/10/09 01:02:10;;;;;;;0.50;0.50;;;;;;;13.70;100.00;96456.69;1026507;28;20037;-74
2023/10/09 01:02:43;;;;;;;1.08;0.57;;;;;;;13.74;100.00;96452.47;1018499;29;20651;-75
2023/10/09 01:03:51;;;;;;;1.25;1.20;;;;;;;13.70;100.00;96445.34;1018458;29;20032;-75
2023/10/09 01:04:25;;;;;;;1.25;1.15;;;;;;;13.72;100.00;96454.59;1022369;28;20082;-76
2023/10/09 01:04:55;;;;;;;2.50;1.45;;;;;;;13.67;100.00;96451.94;1023214;28;20042;-74
2023/10/09 01:05:27;;;;;;;0.63;0.63;;;;;;;13.60;100.00;96443.50;1022528;28;20034;-76
2023/10/09 01:06:44;;;;;;;2.58;1.73;;;;;;;13.66;100.00;96445.09;1022451;28;20086;-75
2023/10/09 01:07:21;;;;;;;1.05;0.50;;;;;;;13.68;100.00;96450.88;1018521;29;20034;-75
2023/10/09 01:07:58;;;;;;;0.93;0.57;;;;;;;13.66;100.00;96442.44;1018587;29;20027;-76
2023/10/09 01:09:14;;;;;;;0.43;0.43;;;;;;;13.63;100.00;96435.84;1025643;28;20065;-76
2023/10/09 01:09:45;;;;;;;0.32;0.32;;;;;;;13.62;100.00;96441.41;1025510;28;20030;-76
2023/10/09 01:10:35;;;;;;;0.45;0.45;;;;;;;13.67;100.00;96454.56;1032305;28;20034;-75
2023/10/09 01:11:18;;;;;;;1.48;1.38;;;;;;;13.60;100.00;96446.13;1026378;28;20038;-75
2023/10/09 01:11:49;;;;;;;0.55;0.55;;;;;;;13.43;100.00;96425.31;1018785;29;20024;-75
2023/10/09 01:12:20;;;;;;;1.10;1.08;;;;;;;13.56;100.00;96447.72;1018728;29;20040;-76
2023/10/09 01:12:55;;;;;;;0.65;0.65;;;;;;;13.52;100.00;96446.69;1016461;29;20070;-75
2023/10/09 01:13:39;;;;;;;2.13;1.42;;;;;;;13.48;100.00;96435.88;1020350;28;20044;-76
2023/10/09 01:14:43;;;;;;;1.48;1.33;;;;;;;13.41;100.00;96441.41;1027633;28;20031;-76
2023/10/09 01:15:19;;;;;;;2.15;1.02;;;;;;;13.39;100.00;96440.84;1029814;28;20523;-75
2023/10/09 01:15:49;;;;;;;0.40;0.38;;;;;;;13.35;100.00;96439.03;1033689;28;20022;-75
2023/10/09 01:16:22;;;;;;;4.38;1.30;;;;;;;13.35;100.00;96441.66;1026276;28;20030;-75
2023/10/09 01:16:54;;;;;;;0.40;0.40;;;;;;;13.31;100.00;96441.41;1018429;29;20028;-76
2023/10/09 01:17:36;;;;;;;0.10;0.10;;;;;;;13.36;100.00;96444.03;1022394;29;20036;-76
2023/10/09 01:18:07;;;;;;;0.85;0.85;;;;;;;13.35;100.00;96446.94;1024637;28;20019;-76
2023/10/09 01:18:43;;;;;;;0.88;0.73;;;;;;;13.34;100.00;96446.13;1024187;28;20659;-75
2023/10/09 01:19:20;;;;;;;0.85;0.85;;;;;;;13.24;100.00;96434.75;1022367;28;20031;-76
2023/10/09 01:19:55;;;;;;;2.05;1.60;;;;;;;13.31;100.00;96449.31;1022615;29;20865;-75
2023/10/09 01:20:30;;;;;;;1.95;0.95;;;;;;;13.27;100.00;96431.63;1022105;28;20120;-75
2023/10/09 01:21:02;;;;;;;0.68;0.68;;;;;;;13.39;100.00;96442.72;1022433;28;20082;-75
2023/10/09 01:21:32;;;;;;;1.50;1.23;;;;;;;13.39;100.00;96442.72;1018522;29;20040;-76
2023/10/09 01:22:22;;;;;;;0.93;0.55;;;;;;;13.35;100.00;96442.44;1020180;29;20035;-76
2023/10/09 01:22:52;;;;;;;7.13;0.68;;;;;;;13.35;100.00;96439.81;1017295;29;20027;-76
2023/10/09 01:23:23;;;;;;;1.98;1.10;;;;;;;13.32;100.00;96427.16;1019852;29;20047;-76
2023/10/09 01:24:03;;;;;;;0.50;0.50;;;;;;;13.36;100.00;96438.75;1018424;29;20505;-74
2023/10/09 01:24:38;;;;;;;0.45;0.45;;;;;;;13.35;100.00;96436.38;1022236;29;20060;-75
2023/10/09 01:25:09;;;;;;;2.45;1.63;;;;;;;13.34;100.00;96440.84;1014110;29;20122;-75
2023/10/09 01:25:45;;;;;;;1.13;1.05;;;;;;;13.38;100.00;96441.91;1024422;28;20527;-76
2023/10/09 01:26:15;;;;;;;1.23;0.75;;;;;;;13.29;100.00;96432.94;1023593;28;20050;-76
2023/10/09 01:26:46;;;;;;;0.30;0.30;;;;;;;13.34;100.00;96440.84;1028792;28;20549;-76
2023/10/09 01:27:17;;;;;;;0.93;0.85;;;;;;;13.33;100.00;96431.34;1026216;28;20562;-75
2023/10/09 01:27:47;;;;;;;0.25;0.25;;;;;;;13.36;100.00;96440.59;1026501;28;20058;-76
2023/10/09 01:28:18;;;;;;;1.33;1.23;;;;;;;13.33;100.00;96434.00;1018668;29;20039;-75
2023/10/09 01:28:49;;;;;;;2.63;1.13;;;;;;;13.35;100.00;96436.38;1022188;28;20027;-76
2023/10/09 01:29:27;;;;;;;1.95;0.77;;;;;;;13.35;100.00;96442.44;1022764;28;20031;-75
2023/10/09 01:29:59;;;;;;;2.58;1.00;;;;;;;13.44;100.00;96434.78;1027664;28;20591;-75
2023/10/09 01:30:31;;;;;;;0.50;0.50;;;;;;;13.51;100.00;96434.53;1023806;28;20124;-75
2023/10/09 01:31:01;;;;;;;2.63;1.65;;;;;;;13.53;100.00;96437.69;1022300;29;20531;-74
2023/10/09 01:31:37;;;;;;;1.45;0.47;;;;;;;13.57;100.00;96436.13;1022756;28;20027;-75
2023/10/09 01:32:16;;;;;;;7.88;0.55;;;;;;;13.60;100.00;96444.28;1028433;28;20019;-75
2023/10/09 01:32:46;;;;;;;12.18;2.83;;;;;;;13.58;100.00;96437.69;1032357;28;20026;-76
2023/10/09 01:33:25;;;;;;;0.40;0.30;;;;;;;13.52;100.00;96430.84;1030489;28;20069;-76
2023/10/09 01:33:59;;;;;;;3.25;2.50;;;;;;;13.55;100.00;96436.38;1030468;28;20523;-76
2023/10/09 01:35:21;;;;;;;1.98;0.30;;;;;;;13.49;100.00;96434.81;1029090;28;20124;-75
2023/10/09 01:35:58;;;;;;;8.48;2.15;;;;;;;13.47;100.00;96436.13;1030450;28;20034;-76
2023/10/09 01:36:32;;;;;;;1.63;0.88;;;;;;;13.46;100.00;96429.28;1022566;29;20058;-75
2023/10/09 01:37:05;;;;;;;3.17;1.45;;;;;;;13.45;100.00;96436.38;1024679;28;20039;-75
2023/10/09 01:37:37;;;;;;;1.40;1.30;;;;;;;13.44;100.00;96429.50;1022354;28;20027;-76
2023/10/09 01:38:14;;;;;;;2.58;1.30;;;;;;;13.46;100.00;96431.91;1025376;28;20043;-76
2023/10/09 01:38:47;;;;;;;4.57;1.75;;;;;;;13.41;100.00;96422.13;1026382;28;20133;-76
2023/10/09 01:39:25;;;;;;;1.00;0.77;;;;;;;13.43;100.00;96417.41;1018468;29;20477;-75
2023/10/09 01:40:15;;;;;;;1.95;1.13;;;;;;;13.46;100.00;96424.00;1022497;29;20038;-76
2023/10/09 01:40:51;;;;;;;1.65;1.48;;;;;;;13.46;100.00;96418.72;1018668;29;20039;-75
2023/10/09 01:41:22;;;;;;;1.85;0.85;;;;;;;13.50;100.00;96427.69;1022406;28;20579;-76
2023/10/09 01:41:58;;;;;;;0.25;0.13;;;;;;;13.47;100.00;96428.22;1025795;28;20027;-76
2023/10/09 01:42:40;;;;;;;1.17;0.98;;;;;;;13.42;100.00;96418.47;1034482;28;20069;-75
2023/10/09 01:43:11;;;;;;;1.15;0.57;;;;;;;13.41;100.00;96420.31;1026406;28;20023;-76
2023/10/09 01:43:44;;;;;;;2.35;0.82;;;;;;;13.42;100.00;96423.72;1026403;28;20077;-76
2023/10/09 01:44:16;;;;;;;4.20;1.77;;;;;;;13.37;100.00;96408.69;1022367;29;20028;-75
2023/10/09 01:44:48;;;;;;;0.75;0.75;;;;;;;13.42;100.00;96424.53;1020163;29;20488;-75
2023/10/09 01:45:51;;;;;;;26.40;1.27;;;;;;;13.34;100.00;96411.84;1019039;29;20011;-76
2023/10/09 01:46:22;;;;;;;1.40;0.68;;;;;;;13.40;100.00;96415.28;1016396;29;20039;-76
2023/10/09 01:46:56;;;;;;;2.92;1.17;;;;;;;13.37;100.00;96411.31;1015651;29;20526;-76
2023/10/09 01:47:31;;;;;;;1.15;0.80;;;;;;;13.30;100.00;96405.53;1015377;29;20036;-76
2023/10/09 01:48:02;;;;;;;0.47;0.47;;;;;;;13.35;100.00;96416.09;1015388;29;20046;-76
2023/10/09 01:48:39;;;;;;;1.13;0.57;;;;;;;13.34;100.00;96413.69;1014597;29;20029;-76
2023/10/09 01:49:17;;;;;;;0.88;0.32;;;;;;;13.30;100.00;96412.66;1022423;29;20038;-76
2023/10/09 01:49:52;;;;;;;1.80;1.38;;;;;;;13.29;100.00;96405.81;1024075;28;20066;-76
2023/10/09 01:50:27;;;;;;;5.57;1.75;;;;;;;13.22;100.00;96400.75;1020995;29;20023;-76
2023/10/09 01:50:58;;;;;;;2.10;0.90;;;;;;;13.30;100.00;96405.53;1018575;29;20019;-76
2023/10/09 01:51:33;;;;;;;0.25;0.25;;;;;;;13.20;100.00;96403.63;1020335;29;20607;-76
2023/10/09 01:52:16;;;;;;;2.53;2.35;;;;;;;13.11;100.00;96383.34;1022371;29;20011;-76
2023/10/09 01:52:46;;;;;;;1.85;0.68;;;;;;;13.23;100.00;96404.97;1022281;29;20019;-76
2023/10/09 01:53:21;;;;;;;4.95;1.48;;;;;;;13.23;100.00;96404.97;1025099;28;20023;-76
2023/10/09 01:53:56;;;;;;;0.70;0.70;;;;;;;13.21;100.00;96404.44;1018359;29;20472;-75
2023/10/09 01:54:36;;;;;;;1.85;1.55;;;;;;;13.21;100.00;96404.44;1021282;29;20048;-76
2023/10/09 01:55:13;;;;;;;0.45;0.45;;;;;;;13.23;100.00;96406.81;1024272;28;20019;-75
2023/10/09 01:55:45;;;;;;;4.80;1.23;;;;;;;13.21;100.00;96399.16;1029266;28;20070;-76
2023/10/09 01:56:16;;;;;;;2.08;1.25;;;;;;;13.15;100.00;96381.78;1026324;28;20073;-76
2023/10/09 01:56:47;;;;;;;5.93;1.40;;;;;;;13.32;100.00;96395.53;1023483;28;20464;-76
2023/10/09 01:57:22;;;;;;;2.20;1.00;;;;;;;13.39;100.00;96401.31;1014419;29;20072;-76
2023/10/09 01:57:52;;;;;;;2.33;2.08;;;;;;;13.31;100.00;96391.31;1018363;29;20027;-75
2023/10/09 01:58:57;;;;;;;1.23;1.13;;;;;;;13.36;100.00;96401.84;1015746;29;20023;-76
2023/10/09 01:59:27;;;;;;;4.25;1.95;;;;;;;13.37;100.00;96398.13;1018418;29;20549;-75
2023/10/09 01:59:59;;;;;;;3.17;1.10;;;;;;;13.42;100.00;96397.38;1021255;28;20024;-75
2023/10/09 02:00:30;;;;;;;3.25;1.73;;;;;;;13.39;100.00;96401.31;1025587;28;20023;-75
2023/10/09 02:01:02;;;;;;;1.23;1.17;;;;;;;13.44;100.00;96395.25;1026783;28;20523;-76
2023/10/09 02:01:33;;;;;;;1.35;1.25;;;;;;;13.43;100.00;96398.94;1026210;28;20468;-76
2023/10/09 02:02:13;;;;;;;1.75;1.05;;;;;;;13.46;100.00;96395.00;1018812;29;20028;-76
2023/10/09 02:02:45;;;;;;;0.28;0.28;;;;;;;13.42;100.00;96395.53;1024142;28;20066;-76
2023/10/09 02:03:15;;;;;;;3.58;1.08;;;;;;;13.50;100.00;96396.03;1027742;28;20047;-76
2023/10/09 02:03:49;;;;;;;2.17;1.77;;;;;;;13.52;100.00;96388.66;1027952;28;20026;-75
2023/10/09 02:04:21;;;;;;;4.60;2.10;;;;;;;13.51;100.00;96397.63;1026252;28;20042;-76
2023/10/09 02:04:53;;;;;;;2.50;0.88;;;;;;;13.47;100.00;96397.34;1027243;28;20027;-75
2023/10/09 02:05:24;;;;;;;0.20;0.20;;;;;;;13.46;100.00;96393.16;1025863;28;20026;-76
2023/10/09 02:06:03;;;;;;;5.07;1.20;;;;;;;13.42;100.00;96389.47;1023432;28;20042;-75
2023/10/09 02:06:36;;;;;;;0.70;0.70;;;;;;;13.42;100.00;96390.25;1022340;29;20026;-75
2023/10/09 02:07:09;;;;;;;3.83;0.80;;;;;;;13.49;100.00;96394.47;1022286;29;20113;-75
2023/10/09 02:07:40;;;;;;;0.75;0.52;;;;;;;13.44;100.00;96390.75;1022365;29;20035;-76
2023/10/09 02:08:15;;;;;;;3.92;0.88;;;;;;;13.44;100.00;96396.03;1018223;29;20035;-75
2023/10/09 02:08:49;;;;;;;0.45;0.45;;;;;;;13.45;100.00;96391.56;1019488;29;20696;-76
2023/10/09 02:09:22;;;;;;;1.25;1.15;;;;;;;13.52;100.00;96393.94;1020036;29;20063;-75
2023/10/09 02:09:54;;;;;;;0.93;0.70;;;;;;;13.48;100.00;96393.69;1021362;28;20043;-76
2023/10/09 02:10:25;;;;;;;0.60;0.50;;;;;;;13.47;100.00;96394.72;1022239;28;20027;-75
2023/10/09 02:10:56;;;;;;;353.25;21.35;;;;;;;13.38;100.00;96389.19;1016323;29;20020;-75
2023/10/09 02:11:36;;;;;;;178.25;84.82;;;;;;;13.35;100.00;96383.66;1018824;29;20520;-76
2023/10/09 02:12:08;;;;;;;3.75;1.92;;;;;;;13.39;100.00;96395.25;1022688;29;20023;-75
2023/10/09 02:12:40;;;;;;;0.43;0.43;;;;;;;13.41;100.00;96393.94;1023118;29;20027;-75
2023/10/09 02:13:11;;;;;;;0.30;0.30;;;;;;;13.42;100.00;96386.81;1024944;28;20122;-74
2023/10/09 02:13:42;;;;;;;14.35;5.97;;;;;;;13.50;100.00;96394.19;1024802;28;20031;-76
2023/10/09 02:14:19;;;;;;;0.10;0.10;;;;;;;13.49;100.00;96394.47;1027092;28;20498;-75
2023/10/09 02:14:53;;;;;;;0.85;0.82;;;;;;;13.47;100.00;96389.44;1023046;29;20125;-75
2023/10/09 02:16:15;;;;;;;2.55;1.45;;;;;;;13.47;100.00;96389.44;1027217;28;20584;-75
2023/10/09 02:17:09;;;;;;;0.00;0.00;;;;;;;13.43;100.00;96386.53;1030440;28;20036;-75
2023/10/09 02:17:51;;;;;;;1.48;0.93;;;;;;;13.41;100.00;96383.41;1027189;28;20051;-76
2023/10/09 02:18:52;;;;;;;1.27;1.02;;;;;;;13.40;100.00;96387.06;1023412;28;20051;-76
2023/10/09 02:19:31;;;;;;;0.20;0.20;;;;;;;13.41;100.00;96383.41;1027083;28;20054;-76
2023/10/09 02:20:16;;;;;;;4.53;3.70;;;;;;;13.44;100.00;96388.13;1029906;28;20034;-76
2023/10/09 02:21:40;;;;;;;1.30;1.20;;;;;;;13.50;100.00;96391.56;1031170;28;20774;-75
2023/10/09 02:22:13;;;;;;;0.20;0.20;;;;;;;13.47;100.00;96386.81;1026373;28;20166;-74
2023/10/09 02:22:43;;;;;;;3.17;2.22;;;;;;;13.42;100.00;96382.34;1030027;28;20389;-74
2023/10/09 02:23:17;;;;;;;2.30;0.52;;;;;;;13.44;100.00;96393.41;1020137;28;20043;-75
2023/10/09 02:23:49;;;;;;;0.30;0.30;;;;;;;13.41;100.00;96382.59;1024099;28;20039;-76
2023/10/09 02:25:21;;;;;;;0.13;0.10;;;;;;;13.61;100.00;96393.13;1030234;28;20045;-73
2023/10/09 02:26:01;;;;;;;5.50;1.30;;;;;;;13.63;100.00;96384.97;1027679;28;20121;-75
2023/10/09 02:27:10;;;;;;;12.60;1.10;;;;;;;13.59;100.00;96387.34;1024894;28;20035;-76
2023/10/09 02:27:46;;;;;;;0.93;0.68;;;;;;;13.63;100.00;96384.97;1023391;29;20039;-75
2023/10/09 02:28:19;;;;;;;0.30;0.30;;;;;;;13.63;100.00;96384.97;1025310;28;20039;-75
2023/10/09 02:29:04;;;;;;;1.17;1.08;;;;;;;13.59;100.00;96381.28;1025546;28;20031;-75
2023/10/09 02:29:38;;;;;;;1.00;0.90;;;;;;;13.59;100.00;96382.06;1022810;29;20516;-76
2023/10/09 02:30:26;;;;;;;0.95;0.77;;;;;;;13.61;100.00;96381.78;1019401;29;20032;-76
2023/10/09 02:31:00;;;;;;;0.73;0.55;;;;;;;13.60;100.00;96388.13;1024777;28;20408;-75
2023/10/09 02:31:40;;;;;;;4.75;1.38;;;;;;;13.52;100.00;96378.13;1031518;28;20038;-76
2023/10/09 02:32:14;;;;;;;3.25;0.98;;;;;;;13.44;100.00;96367.03;1031435;28;20627;-74
2023/10/09 02:32:48;;;;;;;7.88;1.98;;;;;;;13.53;100.00;96390.25;1023489;29;20553;-75
2023/10/09 02:33:20;;;;;;;1.58;1.13;;;;;;;13.48;100.00;96385.78;1023402;29;20587;-75
2023/10/09 02:33:53;;;;;;;2.38;0.88;;;;;;;13.51;100.00;96392.34;1025897;28;20493;-74
2023/10/09 02:34:27;;;;;;;8.05;3.42;;;;;;;13.49;100.00;96386.56;1029737;28;20142;-76
2023/10/09 02:35:08;;;;;;;24.15;22.55;;;;;;;13.45;100.00;96383.66;1026946;28;20106;-75
2023/10/09 02:35:42;;;;;;;3.70;1.65;;;;;;;13.46;100.00;96385.25;1021825;29;20052;-76
2023/10/09 02:36:13;;;;;;;1.67;1.55;;;;;;;13.43;100.00;96385.75;1023320;29;20587;-75
2023/10/09 02:36:48;;;;;;;0.50;0.50;;;;;;;13.41;100.00;96386.03;1023903;28;20040;-76
2023/10/09 02:37:23;;;;;;;1.35;0.38;;;;;;;13.36;100.00;96383.38;1031244;28;20054;-75
2023/10/09 02:37:53;;;;;;;1.70;0.80;;;;;;;13.24;100.00;96367.03;1031253;28;20396;-76
2023/10/09 02:38:24;;;;;;;1.90;1.77;;;;;;;13.29;100.00;96374.19;1028854;28;20030;-75
2023/10/09 02:38:56;;;;;;;1.10;1.00;;;;;;;13.26;100.00;96383.38;1019488;29;20382;-75
2023/10/09 02:39:26;;;;;;;1.73;1.15;;;;;;;13.29;100.00;96379.44;1024345;28;20118;-76
2023/10/09 02:40:00;;;;;;;0.28;0.28;;;;;;;13.24;100.00;96387.31;1027509;28;20061;-76
2023/10/09 02:40:40;;;;;;;12.32;0.77;;;;;;;13.23;100.00;96385.72;1024309;28;20035;-75
2023/10/09 02:41:49;;;;;;;1.23;0.82;;;;;;;13.12;100.00;96379.66;1027404;28;20289;-76
2023/10/09 02:42:23;;;;;;;2.08;1.50;;;;;;;13.09;100.00;96383.63;1026896;28;20074;-74
2023/10/09 02:42:53;;;;;;;5.55;1.27;;;;;;;13.05;100.00;96390.47;1028922;28;20027;-76
2023/10/09 02:43:25;;;;;;;0.85;0.85;;;;;;;13.02;100.00;96374.38;1029133;28;20030;-76
2023/10/09 02:43:57;;;;;;;4.00;1.80;;;;;;;12.98;100.00;96390.72;1020008;29;20070;-75
2023/10/09 02:44:39;;;;;;;0.25;0.22;;;;;;;12.96;100.00;96384.13;1022988;29;20400;-75
2023/10/09 02:45:10;;;;;;;2.58;0.93;;;;;;;12.93;100.00;96377.53;1018925;29;20059;-76
2023/10/09 02:45:50;;;;;;;3.80;1.40;;;;;;;12.94;100.00;96376.50;1025074;28;20027;-75
2023/10/09 02:46:21;;;;;;;3.40;1.42;;;;;;;12.90;100.00;96375.41;1015448;29;20542;-75
2023/10/09 02:46:51;;;;;;;1.02;1.02;;;;;;;12.91;100.00;96374.38;1019509;29;20099;-74
2023/10/09 02:47:38;;;;;;;2.67;1.83;;;;;;;12.91;100.00;96384.09;1023462;29;20023;-76
2023/10/09 02:48:10;;;;;;;0.73;0.65;;;;;;;12.83;100.00;96371.47;1027218;28;20030;-73
2023/10/09 02:49:15;;;;;;;0.70;0.60;;;;;;;12.87;100.00;96383.03;1026028;28;20023;-76
2023/10/09 02:49:39;;;;;;;4.75;1.20;;;;;;;12.82;100.00;96388.31;1027467;28;20496;-74
2023/10/09 02:50:11;;;;;;;0.45;0.45;;;;;;;12.82;100.00;96377.78;1023335;28;20105;-75
2023/10/09 02:50:44;;;;;;;2.45;2.15;;;;;;;12.86;100.00;96381.47;1023463;29;20031;-76
2023/10/09 02:51:21;;;;;;;4.88;1.88;;;;;;;12.71;100.00;96361.19;1027268;28;20093;-76
2023/10/09 02:51:54;;;;;;;2.08;1.00;;;;;;;12.82;100.00;96381.22;1020897;29;20110;-75
2023/10/09 02:52:25;;;;;;;0.50;0.50;;;;;;;12.77;100.00;96381.19;1021185;29;20019;-76
2023/10/09 02:53:08;;;;;;;0.35;0.35;;;;;;;12.75;100.00;96380.66;1023383;29;20023;-74
2023/10/09 02:53:39;;;;;;;0.90;0.90;;;;;;;12.79;100.00;96375.66;1030900;28;20051;-75